Time;durP1;ratioP1;P1;durP2;ratioP2;P2;SDS_P1;SDS_P2;PMS_P1;PMS_P2;Temp;Humidity;BMP_temperature;BMP_pressure;BME280_temperature;BME280_humidity;BME280_pressure;Samples;Min_cycle;Max_cycle;Signal;HPM_P1;HPM_P2
2020/12/09 00:01:16;;;;;;;0.60;0.50;;;4.00;99.90;;;4.94;100.00;-20816.66;5014585;28;20445;-70
2020/12/09 00:03:43;;;;;;;0.60;0.60;;;4.10;99.90;;;5.05;100.00;-20819.72;5015020;28;20496;-69
2020/12/09 00:06:10;;;;;;;0.70;0.60;;;4.10;99.90;;;4.91;100.00;-20815.81;5012692;28;20472;-70
2020/12/09 00:08:38;;;;;;;0.70;0.60;;;4.10;99.90;;;4.80;100.00;-20812.91;5013963;28;20483;-70
2020/12/09 00:11:08;;;;;;;0.60;0.50;;;4.10;99.90;;;4.77;100.00;-20811.94;5014159;28;20489;-70
2020/12/09 00:13:35;;;;;;;0.60;0.50;;;4.00;99.90;;;4.80;100.00;-20812.91;5014734;28;20416;-68
2020/12/09 00:16:02;;;;;;;0.60;0.60;;;4.00;99.90;;;4.96;100.00;-20817.09;5013804;28;20509;-68
2020/12/09 00:18:30;;;;;;;0.60;0.60;;;4.10;99.90;;;4.92;100.00;-20815.97;5004064;28;20478;-68
2020/12/09 00:20:57;;;;;;;0.60;0.50;;;4.10;99.90;;;4.88;100.00;-20814.84;4995074;28;20455;-68
2020/12/09 00:23:24;;;;;;;0.60;0.50;;;4.10;99.90;;;4.84;100.00;-20814.00;5004259;28;20456;-68
2020/12/09 00:25:51;;;;;;;0.60;0.53;;;4.10;99.90;;;4.79;100.00;-20812.63;4998867;28;20552;-68
2020/12/09 00:28:18;;;;;;;0.70;0.70;;;4.10;99.90;;;4.84;100.00;-20813.88;5014493;28;20437;-68
2020/12/09 00:30:46;;;;;;;0.70;0.60;;;4.00;99.90;;;4.99;100.00;-20817.91;5012608;28;20493;-68
2020/12/09 00:33:14;;;;;;;1.83;1.03;;;4.10;99.90;;;4.81;100.00;-20813.19;5014367;28;20461;-68
2020/12/09 00:35:42;;;;;;;0.70;0.70;;;4.10;99.90;;;5.13;100.00;-20821.81;5013929;28;20454;-68
2020/12/09 00:38:09;;;;;;;0.60;0.60;;;4.10;99.90;;;5.00;100.00;-20818.19;5014051;28;20488;-68
2020/12/09 00:40:36;;;;;;;0.60;0.57;;;4.10;99.90;;;4.95;100.00;-20816.81;5013403;28;20961;-69
2020/12/09 00:43:05;;;;;;;0.97;0.97;;;4.10;99.90;;;4.84;100.00;-20814.00;5012442;28;20429;-68
2020/12/09 00:45:32;;;;;;;0.70;0.60;;;4.10;99.90;;;4.82;100.00;-20813.47;5008037;28;20538;-68
2020/12/09 00:47:59;;;;;;;0.60;0.60;;;4.10;99.90;;;4.87;100.00;-20814.72;5013937;28;20802;-68
2020/12/09 00:50:29;;;;;;;0.60;0.60;;;4.00;99.90;;;4.91;100.00;-20815.69;5029093;28;20549;-68
2020/12/09 00:53:03;;;;;;;0.60;0.60;;;4.00;99.90;;;4.80;100.00;-20812.75;5013116;28;20921;-69
2020/12/09 00:55:31;;;;;;;0.60;0.50;;;4.00;99.90;;;4.83;100.00;-20813.59;5010883;28;20461;-68
2020/12/09 00:57:58;;;;;;;0.60;0.50;;;4.00;99.90;;;4.88;100.00;-20815.00;5012741;28;20536;-69
2020/12/09 01:00:25;;;;;;;0.60;0.60;;;4.00;99.90;;;4.94;100.00;-20816.53;5028104;28;20478;-68
2020/12/09 01:03:04;;;;;;;0.67;0.60;;;4.00;99.90;;;5.03;100.00;-20819.03;5025730;28;20526;-68
2020/12/09 01:05:32;;;;;;;0.60;0.60;;;4.00;99.90;;;4.71;100.00;-20810.25;4994368;28;20423;-69
2020/12/09 01:07:59;;;;;;;0.70;0.60;;;4.00;99.90;;;4.66;100.00;-20809.00;4993984;28;20992;-69
2020/12/09 01:10:27;;;;;;;0.70;0.60;;;4.00;99.90;;;4.88;100.00;-20815.00;4999006;28;20445;-68
2020/12/09 01:12:54;;;;;;;1.70;1.10;;;4.00;99.90;;;4.70;100.00;-20809.97;5011144;28;20465;-69
2020/12/09 01:15:22;;;;;;;0.70;0.60;;;4.00;99.90;;;4.57;100.00;-20806.50;5013215;28;20484;-68
2020/12/09 01:17:49;;;;;;;0.60;0.60;;;4.00;99.90;;;4.59;100.00;-20807.06;5013719;28;20411;-68
2020/12/09 01:20:16;;;;;;;0.60;0.60;;;4.00;99.90;;;4.54;100.00;-20805.66;5012947;28;20445;-69
2020/12/09 01:22:45;;;;;;;0.60;0.50;;;4.00;99.90;;;4.60;100.00;-20807.34;4994130;28;20439;-68
2020/12/09 01:25:12;;;;;;;0.70;0.60;;;3.90;99.90;;;4.62;100.00;-20807.75;4993722;28;20427;-68
2020/12/09 01:27:40;;;;;;;0.60;0.60;;;3.90;99.90;;;4.59;100.00;-20807.06;4999728;28;20791;-69
2020/12/09 01:30:07;;;;;;;0.60;0.60;;;3.90;99.90;;;4.81;100.00;-20813.19;5007342;28;20438;-68
2020/12/09 01:32:34;;;;;;;0.70;0.60;;;3.90;99.90;;;4.80;100.00;-20812.91;5012256;28;20501;-68
2020/12/09 01:35:01;;;;;;;0.70;0.60;;;3.90;99.90;;;4.76;100.00;-20811.66;5013108;28;20581;-68
2020/12/09 01:37:28;;;;;;;0.70;0.60;;;3.90;99.90;;;4.71;100.00;-20810.41;5008892;28;20493;-69
2020/12/09 01:39:56;;;;;;;0.60;0.50;;;3.90;99.90;;;4.79;100.00;-20812.63;5002553;28;20449;-69
2020/12/09 01:42:23;;;;;;;0.60;0.50;;;3.90;99.90;;;4.70;100.00;-20809.97;5012636;28;20842;-68
2020/12/09 01:44:51;;;;;;;0.60;0.50;;;3.90;99.90;;;4.66;100.00;-20809.00;5011777;28;20440;-69
2020/12/09 01:47:19;;;;;;;0.60;0.60;;;3.90;99.90;;;4.61;100.00;-20807.63;5012579;28;20199;-68
2020/12/09 01:49:47;;;;;;;0.60;0.50;;;3.90;99.90;;;4.76;100.00;-20811.78;5012124;28;20453;-68
2020/12/09 01:52:16;;;;;;;0.60;0.60;;;3.90;99.90;;;4.85;100.00;-20814.28;5013428;28;20457;-69
2020/12/09 01:54:44;;;;;;;0.60;0.60;;;3.90;99.90;;;4.72;100.00;-20810.69;5012019;28;20437;-68
2020/12/09 01:57:14;;;;;;;0.63;0.60;;;3.90;99.90;;;4.58;100.00;-20806.91;5012180;28;20449;-71
2020/12/09 01:59:41;;;;;;;0.67;0.60;;;3.90;99.90;;;4.60;100.00;-20807.34;4993967;28;20434;-68
2020/12/09 02:02:09;;;;;;;0.60;0.60;;;3.90;99.90;;;4.57;100.00;-20806.50;5007645;28;20851;-69
2020/12/09 02:04:37;;;;;;;0.60;0.60;;;3.80;99.90;;;4.71;100.00;-20810.25;5012044;28;20478;-68
2020/12/09 02:07:05;;;;;;;0.90;0.90;;;3.80;99.90;;;4.68;100.00;-20809.44;5015919;28;20460;-69
2020/12/09 02:09:33;;;;;;;0.60;0.60;;;3.80;99.90;;;4.65;100.00;-20808.59;5017111;28;20428;-71
2020/12/09 02:12:00;;;;;;;0.60;0.50;;;3.80;99.90;;;4.62;100.00;-20807.88;5013027;28;20945;-68
2020/12/09 02:14:27;;;;;;;0.70;0.60;;;3.80;99.90;;;4.72;100.00;-20810.53;5017191;28;20425;-68
2020/12/09 02:16:56;;;;;;;0.60;0.50;;;3.80;99.90;;;4.69;100.00;-20809.84;5016492;28;20449;-68
2020/12/09 02:19:26;;;;;;;0.60;0.50;;;3.80;99.90;;;4.81;100.00;-20813.19;5010976;28;20484;-68
2020/12/09 02:21:54;;;;;;;0.60;0.60;;;3.80;99.90;;;4.84;100.00;-20814.00;5007587;28;20441;-68
2020/12/09 02:24:21;;;;;;;0.60;0.60;;;3.80;99.90;;;4.76;100.00;-20811.78;5016836;28;20190;-68
2020/12/09 02:26:50;;;;;;;0.60;0.60;;;3.80;99.90;;;4.58;100.00;-20806.78;5015890;28;20952;-68
2020/12/09 02:29:20;;;;;;;0.60;0.60;;;3.80;99.90;;;4.60;100.00;-20807.47;5016438;28;20406;-70
2020/12/09 02:31:46;;;;;;;0.60;0.50;;;3.80;99.90;;;4.73;100.00;-20810.81;5013891;28;20469;-68
2020/12/09 02:34:14;;;;;;;0.60;0.50;;;3.70;99.90;;;4.70;100.00;-20810.13;4997532;28;20946;-68
2020/12/09 02:36:44;;;;;;;0.70;0.60;;;3.70;99.90;;;4.70;100.00;-20810.13;5007396;28;20477;-68
2020/12/09 02:39:12;;;;;;;0.90;0.90;;;3.70;99.90;;;4.73;100.00;-20810.94;5016540;28;20472;-68
2020/12/09 02:41:39;;;;;;;0.60;0.60;;;3.70;99.90;;;4.58;100.00;-20806.78;5015567;28;20965;-68
2020/12/09 02:44:07;;;;;;;0.70;0.70;;;3.60;99.90;;;4.52;100.00;-20805.09;5014650;28;20932;-68
2020/12/09 02:46:34;;;;;;;0.70;0.60;;;3.60;99.90;;;4.53;100.00;-20805.53;5015856;28;20953;-68
2020/12/09 02:49:00;;;;;;;0.60;0.57;;;3.60;99.90;;;4.49;100.00;-20804.25;5009951;28;20471;-68
2020/12/09 02:51:27;;;;;;;0.60;0.50;;;3.50;99.90;;;4.69;100.00;-20809.84;5013289;28;20838;-68
2020/12/09 02:53:54;;;;;;;0.60;0.60;;;3.50;99.90;;;4.64;100.00;-20808.44;4996419;28;20184;-71
2020/12/09 02:56:22;;;;;;;1.67;1.58;;;3.40;99.90;;;4.61;100.00;-20807.63;4995950;28;20433;-68
2020/12/09 02:58:49;;;;;;;0.60;0.50;;;3.40;99.90;;;4.35;100.00;-20800.66;4996552;28;20207;-70
2020/12/09 03:01:15;;;;;;;0.60;0.50;;;3.40;99.90;;;4.49;100.00;-20804.25;5004408;28;20214;-68
2020/12/09 03:03:46;;;;;;;0.87;0.87;;;3.40;99.90;;;4.51;100.00;-20804.81;5013925;28;20219;-70
2020/12/09 03:06:15;;;;;;;0.60;0.50;;;3.30;99.90;;;4.41;100.00;-20802.03;5012289;28;20928;-69
2020/12/09 03:08:43;;;;;;;0.60;0.60;;;3.30;99.90;;;4.35;100.00;-20800.66;5016050;28;20477;-68
2020/12/09 03:11:10;;;;;;;0.60;0.60;;;3.30;99.90;;;4.21;100.00;-20796.75;5013884;28;20622;-69
2020/12/09 03:13:38;;;;;;;0.60;0.50;;;3.30;99.90;;;4.41;100.00;-20802.19;5015713;28;20180;-68
2020/12/09 03:16:05;;;;;;;0.68;0.60;;;3.30;99.90;;;4.42;100.00;-20802.47;5013838;28;20191;-68
2020/12/09 03:18:32;;;;;;;0.60;0.60;;;3.30;99.90;;;4.21;100.00;-20796.59;5015589;28;20257;-68
2020/12/09 03:21:00;;;;;;;0.70;0.60;;;3.20;99.90;;;4.16;100.00;-20795.34;5015001;28;20201;-69
2020/12/09 03:23:27;;;;;;;0.60;0.60;;;3.20;99.90;;;4.09;100.00;-20793.41;5030952;28;20669;-69
2020/12/09 03:25:54;;;;;;;0.70;0.60;;;3.20;99.90;;;4.12;100.00;-20794.22;5015101;28;20222;-69
2020/12/09 03:28:21;;;;;;;0.60;0.50;;;3.30;99.90;;;4.23;100.00;-20797.31;5015236;28;20663;-69
2020/12/09 03:30:49;;;;;;;0.60;0.57;;;3.30;99.90;;;4.15;100.00;-20795.06;5014427;28;20197;-68
2020/12/09 03:33:16;;;;;;;0.70;0.60;;;3.30;99.90;;;4.28;100.00;-20798.56;5030280;28;20469;-69
2020/12/09 03:35:43;;;;;;;0.60;0.60;;;3.30;99.90;;;4.19;100.00;-20796.19;5015089;28;20452;-69
2020/12/09 03:38:10;;;;;;;0.80;0.80;;;3.30;99.90;;;4.20;100.00;-20796.47;5009929;28;20852;-69
2020/12/09 03:40:37;;;;;;;0.60;0.60;;;3.30;99.90;;;4.14;100.00;-20794.66;5014099;28;20544;-69
2020/12/09 03:43:04;;;;;;;0.60;0.60;;;3.30;99.90;;;4.17;100.00;-20795.63;5014753;28;20434;-69
2020/12/09 03:45:31;;;;;;;0.60;0.60;;;3.30;99.90;;;4.12;100.00;-20794.22;5014633;28;20241;-68
2020/12/09 03:47:59;;;;;;;0.60;0.60;;;3.30;99.90;;;4.22;100.00;-20797.03;5015091;28;20426;-68
2020/12/09 03:50:26;;;;;;;0.70;0.60;;;3.20;99.90;;;4.14;100.00;-20794.66;5013974;28;20481;-68
2020/12/09 03:52:54;;;;;;;0.70;0.70;;;3.20;99.90;;;4.15;100.00;-20794.94;5013597;28;20461;-68
2020/12/09 03:55:20;;;;;;;0.60;0.60;;;3.20;99.90;;;4.11;100.00;-20793.97;5014487;28;20903;-69
2020/12/09 03:57:47;;;;;;;0.60;0.60;;;3.20;99.90;;;4.11;100.00;-20793.97;5008062;28;20446;-68
2020/12/09 04:00:15;;;;;;;0.60;0.60;;;3.30;99.90;;;4.09;100.00;-20793.41;5005880;28;20933;-70
2020/12/09 04:02:42;;;;;;;0.60;0.50;;;3.30;99.90;;;4.11;100.00;-20793.97;5013573;28;20465;-69
2020/12/09 04:05:10;;;;;;;0.60;0.60;;;3.30;99.90;;;4.21;100.00;-20796.75;5014941;28;20508;-68
2020/12/09 04:07:37;;;;;;;0.90;0.90;;;3.30;99.90;;;4.16;100.00;-20795.22;5011103;28;20458;-68
2020/12/09 04:10:05;;;;;;;0.60;0.50;;;3.30;99.90;;;4.14;100.00;-20794.66;5014107;28;20444;-68
2020/12/09 04:12:32;;;;;;;0.60;0.50;;;3.20;99.90;;;4.11;100.00;-20793.97;5012644;28;20297;-68
2020/12/09 04:14:59;;;;;;;0.70;0.60;;;3.20;99.90;;;4.30;100.00;-20799.25;5014728;28;20209;-68
2020/12/09 04:17:26;;;;;;;0.70;0.60;;;3.20;99.90;;;4.29;100.00;-20798.84;5007943;28;20451;-68
2020/12/09 04:19:53;;;;;;;0.68;0.50;;;3.20;99.90;;;4.32;100.00;-20799.81;5001506;28;20882;-68
2020/12/09 04:22:21;;;;;;;0.60;0.60;;;3.20;99.90;;;4.13;100.00;-20794.50;5013900;28;20202;-68
2020/12/09 04:24:48;;;;;;;0.68;0.60;;;3.20;99.90;;;3.85;100.00;-20787.00;5011471;28;20202;-68
2020/12/09 04:27:16;;;;;;;0.70;0.70;;;3.10;99.90;;;3.94;100.00;-20789.34;5006504;28;20705;-68
2020/12/09 04:29:43;;;;;;;0.70;0.70;;;3.10;99.90;;;3.87;100.00;-20787.53;5014255;28;20278;-68
2020/12/09 04:32:11;;;;;;;0.70;0.70;;;3.10;99.90;;;3.86;100.00;-20787.25;5013221;28;20884;-68
2020/12/09 04:34:38;;;;;;;0.60;0.60;;;3.10;99.90;;;3.90;100.00;-20788.09;5014108;28;20221;-68
2020/12/09 04:37:09;;;;;;;0.60;0.60;;;3.10;99.90;;;3.91;100.00;-20788.38;5014307;28;20209;-69
2020/12/09 04:39:37;;;;;;;0.60;0.50;;;3.00;99.90;;;4.02;100.00;-20791.44;5010643;28;20558;-68
2020/12/09 04:42:04;;;;;;;0.60;0.50;;;3.10;99.90;;;4.05;100.00;-20792.28;5008570;28;20687;-68
2020/12/09 04:44:31;;;;;;;0.60;0.60;;;3.00;99.90;;;3.87;100.00;-20787.53;5013161;28;20651;-68
2020/12/09 04:47:04;;;;;;;0.70;0.70;;;3.00;99.90;;;4.00;100.00;-20791.03;5013748;28;20194;-68
2020/12/09 04:49:41;;;;;;;0.70;0.60;;;3.00;99.90;;;4.08;100.00;-20793.13;5013775;28;20289;-69
2020/12/09 04:52:45;;;;;;;0.60;0.50;;;2.90;99.90;;;3.90;100.00;-20788.25;5013928;28;20320;-68
2020/12/09 04:55:15;;;;;;;1.60;1.50;;;2.90;99.90;;;4.00;100.00;-20790.88;4972204;28;20221;-68
2020/12/09 04:58:12;;;;;;;0.60;0.60;;;2.90;99.90;;;3.94;100.00;-20789.22;5013800;28;20277;-68
2020/12/09 05:00:42;;;;;;;0.68;0.60;;;2.90;99.90;;;3.92;100.00;-20788.81;5009971;28;20179;-68
2020/12/09 05:03:17;;;;;;;0.80;0.80;;;2.90;99.90;;;3.87;100.00;-20787.53;5013735;28;20238;-70
2020/12/09 05:05:45;;;;;;;0.60;0.50;;;2.80;99.90;;;3.87;100.00;-20787.41;5012450;28;20492;-70
2020/12/09 05:08:21;;;;;;;0.63;0.60;;;2.80;99.90;;;3.79;100.00;-20785.31;5013671;28;20910;-70
2020/12/09 05:10:51;;;;;;;0.65;0.57;;;2.80;99.90;;;3.80;100.00;-20785.47;5012280;28;20203;-67
2020/12/09 05:13:24;;;;;;;1.20;1.20;;;2.80;99.90;;;3.85;100.00;-20787.00;5028538;28;20604;-70
2020/12/09 05:15:54;;;;;;;0.70;0.60;;;2.80;99.90;;;3.86;100.00;-20787.25;5013168;28;20599;-70
2020/12/09 05:18:36;;;;;;;0.60;0.50;;;2.80;99.90;;;3.92;100.00;-20788.81;5000536;28;20258;-70
2020/12/09 05:21:25;;;;;;;0.63;0.60;;;2.90;99.90;;;3.85;100.00;-20787.00;5008030;28;20218;-67
2020/12/09 05:23:55;;;;;;;0.70;0.60;;;2.80;99.90;;;3.79;100.00;-20785.19;5010986;28;20204;-68
2020/12/09 05:26:25;;;;;;;0.60;0.50;;;2.80;99.90;;;3.85;100.00;-20786.84;5013204;28;20787;-69
2020/12/09 05:29:10;;;;;;;0.60;0.60;;;2.80;99.90;;;3.90;100.00;-20788.09;5013364;28;20202;-70
2020/12/09 05:31:39;;;;;;;0.70;0.70;;;2.90;99.90;;;3.84;100.00;-20786.72;5012909;28;20573;-70
2020/12/09 05:34:29;;;;;;;0.60;0.50;;;2.90;99.90;;;3.82;100.00;-20786.00;5013246;28;20310;-68
2020/12/09 05:36:59;;;;;;;0.60;0.60;;;2.90;99.90;;;3.73;100.00;-20783.66;5010016;28;20705;-68
2020/12/09 05:39:27;;;;;;;0.60;0.60;;;2.80;99.90;;;3.76;100.00;-20784.47;5013855;28;20289;-69
2020/12/09 05:41:56;;;;;;;0.60;0.60;;;2.80;99.90;;;3.75;100.00;-20784.19;5014638;28;20197;-70
2020/12/09 05:44:25;;;;;;;0.60;0.60;;;2.90;99.90;;;3.78;100.00;-20785.03;5016205;28;20192;-70
2020/12/09 05:46:57;;;;;;;2.88;2.45;;;2.80;99.90;;;3.71;100.00;-20782.94;5017248;28;20199;-70
2020/12/09 05:49:28;;;;;;;0.60;0.60;;;2.90;99.90;;;3.67;100.00;-20781.81;5014059;28;20226;-68
2020/12/09 05:52:11;;;;;;;0.65;0.60;;;2.80;99.90;;;3.71;100.00;-20783.09;5014091;28;20207;-68
2020/12/09 05:54:41;;;;;;;0.60;0.60;;;2.80;99.90;;;3.71;100.00;-20783.09;5011460;28;20238;-68
2020/12/09 05:57:13;;;;;;;0.90;0.90;;;2.80;99.90;;;4.00;100.00;-20790.88;5009107;28;20667;-68
2020/12/09 05:59:41;;;;;;;0.70;0.60;;;2.90;99.90;;;3.85;100.00;-20786.84;5012934;28;20286;-69
2020/12/09 06:02:16;;;;;;;0.60;0.50;;;2.90;99.90;;;3.98;100.00;-20790.34;5002807;28;20726;-68
2020/12/09 06:04:50;;;;;;;0.60;0.60;;;2.90;99.90;;;3.93;100.00;-20789.06;5013055;28;20224;-68
2020/12/09 06:07:19;;;;;;;0.60;0.60;;;2.90;99.90;;;4.04;100.00;-20792.00;5010678;28;20763;-69
2020/12/09 06:10:17;;;;;;;1.70;1.60;;;2.90;99.90;;;3.93;100.00;-20788.94;5015228;28;20269;-68
2020/12/09 06:13:00;;;;;;;0.60;0.50;;;2.90;99.90;;;3.72;100.00;-20783.38;4936784;29;20214;-68
2020/12/09 06:15:28;;;;;;;0.70;0.70;;;2.90;99.90;;;3.91;100.00;-20788.38;4997182;28;20537;-68
2020/12/09 06:18:17;;;;;;;0.60;0.60;;;3.00;99.90;;;3.86;100.00;-20787.13;5015586;28;20660;-68
2020/12/09 06:20:46;;;;;;;0.70;0.60;;;3.00;99.90;;;3.76;100.00;-20784.47;5012848;28;20211;-68
2020/12/09 06:23:15;;;;;;;0.60;0.60;;;2.90;99.90;;;3.77;100.00;-20784.75;5011508;28;20196;-68
2020/12/09 06:25:44;;;;;;;0.60;0.50;;;2.90;99.90;;;3.79;100.00;-20785.31;5014978;28;20516;-68
2020/12/09 06:28:14;;;;;;;0.60;0.60;;;2.90;99.90;;;3.75;100.00;-20784.06;5016308;28;20414;-68
2020/12/09 06:30:42;;;;;;;0.63;0.60;;;2.90;99.90;;;3.70;100.00;-20782.81;5014948;28;20195;-68
2020/12/09 06:33:09;;;;;;;0.60;0.60;;;2.90;99.90;;;3.85;100.00;-20786.84;5012969;28;20230;-68
2020/12/09 06:35:37;;;;;;;0.65;0.60;;;2.90;99.90;;;3.72;100.00;-20783.22;5015863;28;20573;-68
2020/12/09 06:38:17;;;;;;;0.70;0.60;;;2.90;99.90;;;3.78;100.00;-20785.03;5005105;28;20659;-68
2020/12/09 06:41:12;;;;;;;0.60;0.60;;;2.90;99.90;;;3.88;100.00;-20787.81;5000092;28;20241;-68
2020/12/09 06:44:01;;;;;;;0.60;0.50;;;2.90;99.90;;;3.96;100.00;-20789.78;5009732;28;20526;-69
2020/12/09 06:46:45;;;;;;;0.70;0.65;;;2.90;99.90;;;3.62;100.00;-20780.56;5008951;28;20203;-69
2020/12/09 06:49:41;;;;;;;0.80;0.80;;;2.90;99.90;;;3.63;100.00;-20781.00;5015613;28;20212;-70
2020/12/09 06:52:36;;;;;;;0.60;0.60;;;2.80;99.90;;;3.65;100.00;-20781.41;4995085;28;20242;-69
2020/12/09 06:55:08;;;;;;;0.60;0.50;;;2.80;99.90;;;3.68;100.00;-20782.25;5005732;28;20191;-70
2020/12/09 06:57:38;;;;;;;0.60;0.50;;;2.80;99.90;;;3.77;100.00;-20784.75;5013849;28;20245;-70
2020/12/09 07:00:36;;;;;;;0.63;0.60;;;2.80;99.90;;;3.77;100.00;-20784.63;5009713;28;20282;-71
2020/12/09 07:03:26;;;;;;;0.63;0.60;;;2.80;99.90;;;3.73;100.00;-20783.50;5006981;28;20621;-71
2020/12/09 07:05:53;;;;;;;0.60;0.60;;;2.80;99.90;;;3.59;100.00;-20779.75;5003239;28;20706;-71
2020/12/09 07:08:21;;;;;;;0.60;0.50;;;2.80;99.90;;;3.67;100.00;-20781.97;5011521;28;20197;-71
2020/12/09 07:10:48;;;;;;;0.90;0.90;;;2.80;99.90;;;3.74;100.00;-20783.91;5013286;28;21383;-71
2020/12/09 07:13:21;;;;;;;0.70;0.60;;;2.80;99.90;;;3.56;100.00;-20778.91;5030419;28;20500;-69
2020/12/09 07:15:52;;;;;;;0.70;0.60;;;2.80;99.90;;;3.53;100.00;-20778.19;5012719;28;20204;-69
2020/12/09 07:18:19;;;;;;;0.60;0.60;;;2.80;99.90;;;3.51;100.00;-20777.50;5002574;28;20210;-69
2020/12/09 07:20:47;;;;;;;0.60;0.60;;;2.80;99.90;;;3.58;100.00;-20779.47;5012521;28;20248;-69
2020/12/09 07:23:15;;;;;;;6.55;2.03;;;2.80;99.90;;;3.58;100.00;-20779.59;5015454;28;20183;-69
2020/12/09 07:25:42;;;;;;;0.70;0.60;;;2.80;99.90;;;3.66;100.00;-20781.56;5013944;28;20203;-69
2020/12/09 07:28:09;;;;;;;0.60;0.60;;;2.80;99.90;;;3.62;100.00;-20780.72;5014951;28;20215;-69
2020/12/09 07:30:37;;;;;;;0.70;0.60;;;2.90;99.90;;;3.59;100.00;-20779.75;5013648;28;20669;-69
2020/12/09 07:33:04;;;;;;;0.60;0.60;;;2.90;99.90;;;3.58;100.00;-20779.47;5007084;28;20604;-69
2020/12/09 07:35:31;;;;;;;0.70;0.60;;;2.80;99.90;;;3.61;100.00;-20780.44;5001774;28;21217;-69
2020/12/09 07:38:00;;;;;;;1.55;1.05;;;2.80;99.90;;;3.50;100.00;-20777.22;5006469;28;20446;-69
2020/12/09 07:40:30;;;;;;;0.60;0.50;;;2.80;99.90;;;3.60;100.00;-20780.00;5009369;28;20205;-69
2020/12/09 07:43:04;;;;;;;0.60;0.60;;;2.80;99.90;;;3.67;100.00;-20781.81;5007702;28;20247;-71
2020/12/09 07:45:33;;;;;;;1.80;1.70;;;2.80;99.90;;;3.75;100.00;-20784.19;5009717;28;20966;-69
2020/12/09 07:48:06;;;;;;;0.60;0.50;;;2.80;99.90;;;3.80;100.00;-20785.59;5014035;28;20520;-69
2020/12/09 07:50:35;;;;;;;0.60;0.50;;;2.90;99.90;;;3.85;100.00;-20787.00;5015006;28;20198;-70
2020/12/09 07:53:02;;;;;;;0.60;0.52;;;2.90;99.90;;;3.75;100.00;-20784.19;5014639;28;20199;-70
2020/12/09 07:55:33;;;;;;;0.60;0.50;;;2.90;99.90;;;3.75;100.00;-20784.06;5013646;28;20245;-69
2020/12/09 07:58:05;;;;;;;0.70;0.60;;;2.80;99.90;;;3.67;100.00;-20781.97;5025708;28;20460;-70
2020/12/09 08:00:40;;;;;;;0.70;0.60;;;2.80;99.90;;;3.58;100.00;-20779.59;4997655;28;20202;-69
2020/12/09 08:03:18;;;;;;;0.60;0.60;;;2.80;99.90;;;3.34;100.00;-20773.03;5012561;28;20507;-69
2020/12/09 08:05:45;;;;;;;0.70;0.60;;;2.70;99.90;;;3.27;100.00;-20770.94;5012430;28;20194;-72
2020/12/09 08:08:13;;;;;;;0.80;0.80;;;2.60;99.90;;;3.36;100.00;-20773.59;5000750;28;21009;-69
2020/12/09 08:10:44;;;;;;;1.25;1.15;;;2.60;99.90;;;3.33;100.00;-20772.75;5006348;28;20468;-69
2020/12/09 08:13:14;;;;;;;0.60;0.60;;;2.60;99.90;;;3.32;100.00;-20772.34;5014016;28;20205;-70
2020/12/09 08:15:43;;;;;;;1.00;1.00;;;2.60;99.90;;;3.36;100.00;-20773.59;5013573;28;20191;-70
2020/12/09 08:18:22;;;;;;;0.70;0.60;;;2.60;99.90;;;3.32;100.00;-20772.50;5014094;28;20206;-69
2020/12/09 08:20:51;;;;;;;0.70;0.68;;;2.60;99.90;;;3.37;100.00;-20773.75;5014432;28;20444;-69
2020/12/09 08:23:18;;;;;;;0.60;0.60;;;2.70;99.90;;;3.57;100.00;-20779.19;5013876;28;20193;-69
2020/12/09 08:25:48;;;;;;;0.70;0.60;;;2.70;99.90;;;3.66;100.00;-20781.69;5005980;28;20242;-69
2020/12/09 08:28:20;;;;;;;0.65;0.60;;;2.80;99.90;;;3.76;100.00;-20784.47;5002408;28;20206;-69
2020/12/09 08:30:47;;;;;;;0.70;0.60;;;2.90;99.90;;;3.91;100.00;-20788.38;4998822;28;20187;-70
2020/12/09 08:33:19;;;;;;;0.60;0.60;;;2.90;99.90;;;4.06;100.00;-20792.56;5014244;28;20294;-70
2020/12/09 08:35:59;;;;;;;0.63;0.60;;;3.00;99.90;;;4.08;100.00;-20793.25;5013310;28;20244;-70
2020/12/09 08:38:36;;;;;;;0.70;0.70;;;3.00;99.90;;;4.26;100.00;-20798.13;5014108;28;20190;-70
2020/12/09 08:41:24;;;;;;;0.80;0.80;;;3.10;99.90;;;4.18;100.00;-20795.78;5014079;28;20513;-70
2020/12/09 08:43:55;;;;;;;0.60;0.60;;;3.10;99.90;;;4.31;100.00;-20799.53;5028252;28;20433;-70
2020/12/09 08:46:24;;;;;;;0.70;0.63;;;3.10;99.90;;;4.55;100.00;-20805.94;5012863;28;20539;-69
2020/12/09 08:48:52;;;;;;;0.60;0.60;;;3.10;99.90;;;4.44;100.00;-20802.88;5013321;28;20473;-70
2020/12/09 08:51:25;;;;;;;0.70;0.60;;;3.10;99.90;;;4.25;100.00;-20797.72;5013190;28;20435;-69
2020/12/09 08:53:53;;;;;;;0.70;0.60;;;3.10;99.90;;;4.16;100.00;-20795.34;5013801;28;20513;-71
2020/12/09 08:56:26;;;;;;;0.60;0.50;;;3.10;99.90;;;4.40;100.00;-20801.75;4996597;28;20483;-69
2020/12/09 08:58:53;;;;;;;4.20;1.57;;;3.20;99.90;;;4.36;100.00;-20800.94;5006462;28;20458;-70
2020/12/09 09:01:21;;;;;;;0.70;0.60;;;3.20;99.90;;;4.21;100.00;-20796.75;5012006;28;20489;-69
2020/12/09 09:03:54;;;;;;;0.70;0.63;;;3.20;99.90;;;4.33;100.00;-20800.09;5013682;28;20477;-69
2020/12/09 09:06:23;;;;;;;0.70;0.60;;;3.20;99.90;;;4.53;100.00;-20805.53;5009016;28;20454;-69
2020/12/09 09:08:52;;;;;;;0.77;0.77;;;3.10;99.90;;;4.26;100.00;-20798.13;5013039;28;20918;-70
2020/12/09 09:11:24;;;;;;;0.60;0.60;;;3.10;99.90;;;4.28;100.00;-20798.69;5013239;28;20436;-69
2020/12/09 09:13:52;;;;;;;1.47;1.37;;;3.10;99.90;;;4.10;100.00;-20793.81;5006532;28;20438;-70
2020/12/09 09:16:20;;;;;;;1.33;1.23;;;3.10;99.90;;;3.83;100.00;-20786.28;5008306;28;20771;-70
2020/12/09 09:18:48;;;;;;;0.70;0.60;;;3.00;99.90;;;3.73;100.00;-20783.66;5006738;28;20569;-70
2020/12/09 09:21:16;;;;;;;0.93;0.93;;;3.00;99.90;;;3.62;100.00;-20780.56;5010735;28;20186;-70
2020/12/09 09:23:45;;;;;;;0.70;0.60;;;3.00;99.90;;;3.62;100.00;-20780.56;5009928;28;20214;-71
2020/12/09 09:26:14;;;;;;;0.70;0.60;;;2.90;99.90;;;4.01;100.00;-20791.16;5009705;28;20673;-71
2020/12/09 09:28:42;;;;;;;0.70;0.60;;;3.00;99.90;;;4.30;100.00;-20799.25;5006017;28;20579;-70
2020/12/09 09:31:10;;;;;;;1.27;1.17;;;3.10;99.90;;;4.27;100.00;-20798.41;5011865;28;20516;-70
2020/12/09 09:33:37;;;;;;;0.70;0.60;;;3.30;99.90;;;4.51;100.00;-20804.97;5013416;28;20469;-70
2020/12/09 09:36:05;;;;;;;0.60;0.60;;;3.40;99.90;;;4.97;100.00;-20817.34;5012382;28;20457;-70
2020/12/09 09:38:32;;;;;;;4.10;2.80;;;3.60;99.90;;;5.09;100.00;-20820.69;5012434;28;20453;-70
2020/12/09 09:41:00;;;;;;;1.47;1.17;;;3.60;99.90;;;4.93;100.00;-20816.25;4999444;28;20450;-70
2020/12/09 09:43:27;;;;;;;0.80;0.70;;;3.70;99.90;;;4.97;100.00;-20817.50;5012802;28;20517;-70
2020/12/09 09:45:55;;;;;;;0.80;0.80;;;3.80;99.90;;;5.32;100.00;-20827.09;5012894;28;20481;-70
2020/12/09 09:48:22;;;;;;;0.70;0.70;;;3.80;99.90;;;5.12;100.00;-20821.41;5012707;28;20461;-70
2020/12/09 09:50:50;;;;;;;0.60;0.60;;;4.00;99.90;;;5.19;100.00;-20823.34;5008527;28;20446;-70
2020/12/09 09:53:20;;;;;;;0.60;0.53;;;4.10;99.90;;;5.25;100.00;-20825.00;5007573;28;20469;-70
2020/12/09 09:55:47;;;;;;;0.70;0.57;;;4.10;99.90;;;5.96;100.00;-20844.34;5013216;28;20418;-70
2020/12/09 09:58:16;;;;;;;0.70;0.60;;;4.10;99.90;;;6.05;100.00;-20846.88;5001890;28;20451;-70
2020/12/09 10:00:45;;;;;;;0.60;0.60;;;4.30;99.90;;;5.65;100.00;-20836.00;4999088;28;20446;-70
2020/12/09 10:03:13;;;;;;;1.00;0.90;;;4.40;99.90;;;5.50;100.00;-20831.97;5012685;28;20461;-70
2020/12/09 10:05:41;;;;;;;0.70;0.60;;;4.50;99.90;;;5.53;100.00;-20832.66;5012791;28;20932;-70
2020/12/09 10:08:08;;;;;;;0.70;0.60;;;4.40;99.90;;;5.55;100.00;-20833.22;5009539;28;20450;-70
2020/12/09 10:10:36;;;;;;;0.70;0.60;;;4.30;99.90;;;5.40;100.00;-20829.06;5009669;28;20533;-70
2020/12/09 10:13:04;;;;;;;0.70;0.60;;;4.40;99.90;;;5.35;100.00;-20827.66;4996504;28;20506;-70
2020/12/09 10:15:32;;;;;;;0.70;0.70;;;4.30;99.90;;;5.18;100.00;-20823.06;5012540;28;20440;-70
2020/12/09 10:17:59;;;;;;;0.70;0.60;;;4.30;99.90;;;5.52;100.00;-20832.53;5011147;28;20434;-70
2020/12/09 10:20:27;;;;;;;0.70;0.60;;;4.30;99.90;;;5.16;100.00;-20822.66;5008447;28;20430;-70
2020/12/09 10:22:54;;;;;;;0.70;0.60;;;4.20;99.90;;;4.98;100.00;-20817.63;5009495;28;20430;-71
2020/12/09 10:25:23;;;;;;;0.70;0.57;;;4.20;99.90;;;4.85;100.00;-20814.28;5009009;28;20445;-71
2020/12/09 10:27:53;;;;;;;1.07;0.90;;;4.20;99.90;;;5.61;100.00;-20834.75;5009666;28;20454;-70
2020/12/09 10:30:20;;;;;;;1.57;1.47;;;4.30;99.90;;;5.13;100.00;-20821.69;5014090;28;20440;-71
2020/12/09 10:32:49;;;;;;;2.50;1.00;;;4.30;99.90;;;5.51;100.00;-20832.13;5016281;28;20892;-70